No Worries — WDD9422 — position and weather

sailwx.info

Track history (hours):
 
Tides and Currents Weather Stations Pressure Air Temp Water Temp Dewpoint Dewpoint Depression Visibility Wind Speed Wind Dir Waves Ship Positions

No Worries

Owner: Scheck, Michael W, San Leandro, CA. More information available from US FCC via Universal Licensing System and Coast Guard Vessel Documentation Center.

Last reported at 2018-Jun-19 04:30 UTC. Time now 2018-Jun-19 04:44 UTC.
Position N 37°47' W 122°16'.

Length 14 m.

Type: Sailing vessel. MMSI: 367311210.

Date/timePositionNaut miles runAvg speedWind from/ knotsBaromVisibWave heightAir tempDewpointWater temp
2018-Jun-19 04:30N 37°47' W 122°16'0 0.0
2018-Jun-19 04:00N 37°47' W 122°16'0 0.0
2018-Jun-19 03:30N 37°47' W 122°16'0 0.0
2018-Jun-19 03:00N 37°47' W 122°16'0 0.0
2018-Jun-19 02:30N 37°47' W 122°16'0 0.0
2018-Jun-19 02:00N 37°47' W 122°16'0 0.0
2018-Jun-19 01:30N 37°47' W 122°16'0 0.0
2018-Jun-19 01:00N 37°47' W 122°16'0 0.0
2018-Jun-19 00:30N 37°47' W 122°16'0 0.0
2018-Jun-19 00:00N 37°47' W 122°16'0 0.0
2018-Jun-18 23:30N 37°47' W 122°16'0 0.0
2018-Jun-18 23:00N 37°47' W 122°16'0 0.0
2018-Jun-18 22:30N 37°47' W 122°16'0 0.0
2018-Jun-18 22:00N 37°47' W 122°16'0 0.0
2018-Jun-18 21:30N 37°47' W 122°16'0 0.0
2018-Jun-18 21:00N 37°47' W 122°16'0 0.0
2018-Jun-18 20:30N 37°47' W 122°16'0 0.0
2018-Jun-18 20:00N 37°47' W 122°16'0 0.0
2018-Jun-18 19:30N 37°47' W 122°16'0 0.0
2018-Jun-18 19:00N 37°47' W 122°16'0 0.0
2018-Jun-18 18:30N 37°47' W 122°16'0 0.0
2018-Jun-18 18:00N 37°47' W 122°16'0 0.0
2018-Jun-18 17:30N 37°47' W 122°16'0 0.0
2018-Jun-18 17:00N 37°47' W 122°16'0 0.0
2018-Jun-18 16:30N 37°47' W 122°16'0 0.0
2018-Jun-18 15:57N 37°47' W 122°16'0 0.0
2018-Jun-18 15:30N 37°47' W 122°16'0 0.0
2018-Jun-18 15:00N 37°47' W 122°16'0 0.0
2018-Jun-18 14:30N 37°47' W 122°16'0 0.0
2018-Jun-18 14:00N 37°47' W 122°16'0 0.0
2018-Jun-18 13:30N 37°47' W 122°16'0 0.0
2018-Jun-18 13:00N 37°47' W 122°16'0 0.0
2018-Jun-18 12:30N 37°47' W 122°16'0 0.0
2018-Jun-18 12:00N 37°47' W 122°16'0 0.0
2018-Jun-18 11:30N 37°47' W 122°16'0 0.0
2018-Jun-18 11:00N 37°47' W 122°16'0 0.0
2018-Jun-18 10:30N 37°47' W 122°16'0 0.0
2018-Jun-18 10:00N 37°47' W 122°16'0 0.0
2018-Jun-18 09:30N 37°47' W 122°16'0 0.0
2018-Jun-18 09:00N 37°47' W 122°16'0 0.0
2018-Jun-18 08:30N 37°47' W 122°16'0 0.0
2018-Jun-18 08:00N 37°47' W 122°16'0 0.0
2018-Jun-18 07:30N 37°47' W 122°16'0 0.0
2018-Jun-18 07:00N 37°47' W 122°16'0 0.0
2018-Jun-18 06:30N 37°47' W 122°16'0 0.0
2018-Jun-18 06:00N 37°47' W 122°16'0 0.0
2018-Jun-18 05:30N 37°47' W 122°16'0 0.0
2018-Jun-18 05:00N 37°47' W 122°16'0 0.0
2018-Jun-18 04:30N 37°47' W 122°16'0 0.0
2018-Jun-18 04:00N 37°47' W 122°16'0 0.0
2018-Jun-18 03:30N 37°47' W 122°16'0 0.0
2018-Jun-18 03:00N 37°47' W 122°16'0 0.0
2018-Jun-18 02:30N 37°47' W 122°16'0 0.0
2018-Jun-18 02:00N 37°47' W 122°16'0 0.0
2018-Jun-18 01:30N 37°47' W 122°16'0 0.0
2018-Jun-18 01:00N 37°47' W 122°16'0 0.0
2018-Jun-18 00:30N 37°47' W 122°16'0 0.0
2018-Jun-18 00:00N 37°47' W 122°16'0 0.0
2018-Jun-17 23:30N 37°47' W 122°16'0 0.3
2018-Jun-17 23:00N 37°47' W 122°16'1 2.3
2018-Jun-17 22:30N 37°48' W 122°17'2 4.0
2018-Jun-17 22:00N 37°48' W 122°20'2 3.3
2018-Jun-17 21:30N 37°47' W 122°21'1 2.7
2018-Jun-17 20:58N 37°47' W 122°23'1 2.7
2018-Jun-17 20:30N 37°48' W 122°24'1 1.4
2018-Jun-17 19:55N 37°49' W 122°24'2 4.0
2018-Jun-17 19:30N 37°48' W 122°23'3 5.1
2018-Jun-17 19:00N 37°48' W 122°19'2 5.0
2018-Jun-17 18:30N 37°47' W 122°16'0 0.6
2018-Jun-17 18:00N 37°47' W 122°16'0 0.0
2018-Jun-16 04:41N 37°47' W 122°16'0 0.0
2018-Jun-16 04:28N 37°47' W 122°16'1 2.8
2018-Jun-16 04:00N 37°48' W 122°18'2 4.1
2018-Jun-16 03:30N 37°48' W 122°20'1 2.1
2018-Jun-16 03:00N 37°48' W 122°21'3 5.8
2018-Jun-16 02:30N 37°48' W 122°18'2 3.0
2018-Jun-16 01:58N 37°47' W 122°16'  
2018-Jun-10 22:54N 37°47' W 122°16'0 0.0
2018-Jun-10 22:30N 37°47' W 122°16'0 0.0
2018-Jun-10 22:00N 37°47' W 122°16'0 0.0
2018-Jun-10 21:30N 37°47' W 122°16'1 1.6
2018-Jun-10 21:00N 37°48' W 122°17'2 4.3
2018-Jun-10 20:30N 37°48' W 122°19'2 3.5
2018-Jun-10 20:00N 37°49' W 122°21'3 5.7
2018-Jun-10 19:27N 37°52' W 122°23'3 5.3
2018-Jun-10 18:56N 37°54' W 122°25'1 2.7
2018-Jun-10 18:26N 37°55' W 122°26'  
Track history (hours):
 
Tides and Currents Weather Stations Pressure Air Temp Water Temp Dewpoint Dewpoint Depression Visibility Wind Speed Wind Dir Waves Ship Positions

No Worries

Owner: Scheck, Michael W, San Leandro, CA. More information available from US FCC via Universal Licensing System and Coast Guard Vessel Documentation Center.

Last reported at 2018-Jun-19 04:30 UTC. Time now 2018-Jun-19 04:44 UTC.
Position N 37°47' W 122°16'.

Length 14 m.

Type: Sailing vessel. MMSI: 367311210.

Date/timePositionNaut miles runAvg speedWind from/ knotsBaromVisibWave heightAir tempDewpointWater temp
2018-Jun-19 04:30N 37°47' W 122°16'0 0.0
2018-Jun-19 04:00N 37°47' W 122°16'0 0.0
2018-Jun-19 03:30N 37°47' W 122°16'0 0.0
2018-Jun-19 03:00N 37°47' W 122°16'0 0.0
2018-Jun-19 02:30N 37°47' W 122°16'0 0.0
2018-Jun-19 02:00N 37°47' W 122°16'0 0.0
2018-Jun-19 01:30N 37°47' W 122°16'0 0.0
2018-Jun-19 01:00N 37°47' W 122°16'0 0.0
2018-Jun-19 00:30N 37°47' W 122°16'0 0.0
2018-Jun-19 00:00N 37°47' W 122°16'0 0.0
2018-Jun-18 23:30N 37°47' W 122°16'0 0.0
2018-Jun-18 23:00N 37°47' W 122°16'0 0.0
2018-Jun-18 22:30N 37°47' W 122°16'0 0.0
2018-Jun-18 22:00N 37°47' W 122°16'0 0.0
2018-Jun-18 21:30N 37°47' W 122°16'0 0.0
2018-Jun-18 21:00N 37°47' W 122°16'0 0.0
2018-Jun-18 20:30N 37°47' W 122°16'0 0.0
2018-Jun-18 20:00N 37°47' W 122°16'0 0.0
2018-Jun-18 19:30N 37°47' W 122°16'0 0.0
2018-Jun-18 19:00N 37°47' W 122°16'0 0.0
2018-Jun-18 18:30N 37°47' W 122°16'0 0.0
2018-Jun-18 18:00N 37°47' W 122°16'0 0.0
2018-Jun-18 17:30N 37°47' W 122°16'0 0.0
2018-Jun-18 17:00N 37°47' W 122°16'0 0.0
2018-Jun-18 16:30N 37°47' W 122°16'0 0.0
2018-Jun-18 15:57N 37°47' W 122°16'0 0.0
2018-Jun-18 15:30N 37°47' W 122°16'0 0.0
2018-Jun-18 15:00N 37°47' W 122°16'0 0.0
2018-Jun-18 14:30N 37°47' W 122°16'0 0.0
2018-Jun-18 14:00N 37°47' W 122°16'0 0.0
2018-Jun-18 13:30N 37°47' W 122°16'0 0.0
2018-Jun-18 13:00N 37°47' W 122°16'0 0.0
2018-Jun-18 12:30N 37°47' W 122°16'0 0.0
2018-Jun-18 12:00N 37°47' W 122°16'0 0.0
2018-Jun-18 11:30N 37°47' W 122°16'0 0.0
2018-Jun-18 11:00N 37°47' W 122°16'0 0.0
2018-Jun-18 10:30N 37°47' W 122°16'0 0.0
2018-Jun-18 10:00N 37°47' W 122°16'0 0.0
2018-Jun-18 09:30N 37°47' W 122°16'0 0.0
2018-Jun-18 09:00N 37°47' W 122°16'0 0.0
2018-Jun-18 08:30N 37°47' W 122°16'0 0.0
2018-Jun-18 08:00N 37°47' W 122°16'0 0.0
2018-Jun-18 07:30N 37°47' W 122°16'0 0.0
2018-Jun-18 07:00N 37°47' W 122°16'0 0.0
2018-Jun-18 06:30N 37°47' W 122°16'0 0.0
2018-Jun-18 06:00N 37°47' W 122°16'0 0.0
2018-Jun-18 05:30N 37°47' W 122°16'0 0.0
2018-Jun-18 05:00N 37°47' W 122°16'0 0.0
2018-Jun-18 04:30N 37°47' W 122°16'0 0.0
2018-Jun-18 04:00N 37°47' W 122°16'0 0.0
2018-Jun-18 03:30N 37°47' W 122°16'0 0.0
2018-Jun-18 03:00N 37°47' W 122°16'0 0.0
2018-Jun-18 02:30N 37°47' W 122°16'0 0.0
2018-Jun-18 02:00N 37°47' W 122°16'0 0.0
2018-Jun-18 01:30N 37°47' W 122°16'0 0.0
2018-Jun-18 01:00N 37°47' W 122°16'0 0.0
2018-Jun-18 00:30N 37°47' W 122°16'0 0.0
2018-Jun-18 00:00N 37°47' W 122°16'0 0.0
2018-Jun-17 23:30N 37°47' W 122°16'0 0.3
2018-Jun-17 23:00N 37°47' W 122°16'1 2.3
2018-Jun-17 22:30N 37°48' W 122°17'2 4.0
2018-Jun-17 22:00N 37°48' W 122°20'2 3.3
2018-Jun-17 21:30N 37°47' W 122°21'1 2.7
2018-Jun-17 20:58N 37°47' W 122°23'1 2.7
2018-Jun-17 20:30N 37°48' W 122°24'1 1.4
2018-Jun-17 19:55N 37°49' W 122°24'2 4.0
2018-Jun-17 19:30N 37°48' W 122°23'3 5.1
2018-Jun-17 19:00N 37°48' W 122°19'2 5.0
2018-Jun-17 18:30N 37°47' W 122°16'0 0.6
2018-Jun-17 18:00N 37°47' W 122°16'0 0.0
2018-Jun-16 04:41N 37°47' W 122°16'0 0.0
2018-Jun-16 04:28N 37°47' W 122°16'1 2.8
2018-Jun-16 04:00N 37°48' W 122°18'2 4.1
2018-Jun-16 03:30N 37°48' W 122°20'1 2.1
2018-Jun-16 03:00N 37°48' W 122°21'3 5.8
2018-Jun-16 02:30N 37°48' W 122°18'2 3.0
2018-Jun-16 01:58N 37°47' W 122°16'  
2018-Jun-10 22:54N 37°47' W 122°16'0 0.0
2018-Jun-10 22:30N 37°47' W 122°16'0 0.0
2018-Jun-10 22:00N 37°47' W 122°16'0 0.0
2018-Jun-10 21:30N 37°47' W 122°16'1 1.6
2018-Jun-10 21:00N 37°48' W 122°17'2 4.3
2018-Jun-10 20:30N 37°48' W 122°19'2 3.5
2018-Jun-10 20:00N 37°49' W 122°21'3 5.7
2018-Jun-10 19:27N 37°52' W 122°23'3 5.3
2018-Jun-10 18:56N 37°54' W 122°25'1 2.7
2018-Jun-10 18:26N 37°55' W 122°26'  

Dump ship's entire track history